createdAt,value
2018-02-07T00:01:58.243Z,-0.05
2018-02-07T00:04:25.709Z,-0.11
2018-02-07T00:06:53.173Z,-0.06
2018-02-07T00:09:21.233Z,-0.02
2018-02-07T00:11:48.697Z,-0.05
2018-02-07T00:14:16.165Z,-0.06
2018-02-07T00:16:43.917Z,0.02
2018-02-07T00:19:11.364Z,0.02
2018-02-07T00:21:38.821Z,-0.01
2018-02-07T00:24:06.912Z,0.10
2018-02-07T00:26:34.376Z,-0.02
2018-02-07T00:29:01.824Z,0.09
2018-02-07T00:31:29.610Z,0.12
2018-02-07T00:33:58.060Z,-0.01
2018-02-07T00:36:25.512Z,0.04
2018-02-07T00:38:53.511Z,0.10
2018-02-07T00:41:20.962Z,0.05
2018-02-07T00:43:48.425Z,0.00
2018-02-07T00:46:16.344Z,0.02
2018-02-07T00:48:43.800Z,0.15
2018-02-07T00:51:11.254Z,0.17
2018-02-07T00:53:38.940Z,0.15
2018-02-07T00:56:06.402Z,0.11
2018-02-07T00:58:33.848Z,0.15
2018-02-07T01:01:01.585Z,0.07
2018-02-07T01:03:29.049Z,0.09
2018-02-07T01:05:56.504Z,0.11
2018-02-07T01:08:24.236Z,0.18
2018-02-07T01:10:51.684Z,0.11
2018-02-07T01:13:19.141Z,0.14
2018-02-07T01:15:46.968Z,0.02
2018-02-07T01:18:14.422Z,0.06
2018-02-07T01:20:41.883Z,0.14
2018-02-07T01:23:09.647Z,0.17
2018-02-07T01:25:37.099Z,0.11
2018-02-07T01:28:04.564Z,0.16
2018-02-07T01:30:32.332Z,0.12
2018-02-07T01:32:59.789Z,0.13
2018-02-07T01:35:27.930Z,0.11
2018-02-07T01:37:55.948Z,-0.03
2018-02-07T01:40:23.428Z,-0.03
2018-02-07T01:42:50.890Z,-0.12
2018-02-07T01:45:18.620Z,-0.09
2018-02-07T01:47:46.072Z,-0.02
2018-02-07T01:50:13.537Z,-0.02
2018-02-07T01:52:43.472Z,-0.03
2018-02-07T01:55:10.929Z,-0.06
2018-02-07T01:57:38.387Z,0.01
2018-02-07T02:00:06.151Z,0.00
2018-02-07T02:02:33.621Z,-0.07
2018-02-07T02:05:01.080Z,-0.14
2018-02-07T02:07:29.455Z,-0.08
2018-02-07T02:09:56.917Z,-0.08
2018-02-07T02:12:24.371Z,-0.10
2018-02-07T02:14:52.145Z,-0.21
2018-02-07T02:17:19.604Z,-0.20
2018-02-07T02:19:47.069Z,-0.22
2018-02-07T02:22:14.825Z,-0.32
2018-02-07T02:24:42.276Z,-0.34
2018-02-07T02:27:09.737Z,-0.27
2018-02-07T02:29:37.524Z,-0.21
2018-02-07T02:32:04.984Z,-0.25
2018-02-07T02:34:32.448Z,-0.24
2018-02-07T02:37:01.088Z,-0.20
2018-02-07T02:39:28.544Z,-0.27
2018-02-07T02:41:56.004Z,-0.30
2018-02-07T02:44:23.813Z,-0.20
2018-02-07T02:46:51.272Z,-0.26
2018-02-07T02:49:18.730Z,-0.27
2018-02-07T02:51:46.492Z,-0.36
2018-02-07T02:54:13.958Z,-0.31
2018-02-07T02:56:41.438Z,-0.35
2018-02-07T02:59:09.185Z,-0.45
2018-02-07T03:01:36.661Z,-0.41
2018-02-07T03:04:04.124Z,-0.45
2018-02-07T03:06:31.813Z,-0.54
2018-02-07T03:08:59.378Z,-0.51
2018-02-07T03:11:26.841Z,-0.43
2018-02-07T03:13:54.558Z,-0.56
2018-02-07T03:16:22.025Z,-0.60
2018-02-07T03:18:49.480Z,-0.55
2018-02-07T03:21:17.552Z,-0.63
2018-02-07T03:23:45.033Z,-0.62
2018-02-07T03:26:12.492Z,-0.56
2018-02-07T03:28:40.079Z,-0.63
2018-02-07T03:31:07.960Z,-0.66
2018-02-07T03:33:35.430Z,-0.60
2018-02-07T03:36:03.232Z,-0.61
2018-02-07T03:38:31.222Z,-0.63
2018-02-07T03:40:58.683Z,-0.64
2018-02-07T03:43:26.545Z,-0.60
2018-02-07T03:45:54.014Z,-0.70
2018-02-07T03:48:21.476Z,-0.67
2018-02-07T03:50:49.530Z,-0.62
2018-02-07T03:53:17.002Z,-0.65
2018-02-07T03:55:44.454Z,-0.61
2018-02-07T03:58:12.532Z,-0.64
2018-02-07T04:00:40.030Z,-0.69
2018-02-07T04:03:07.501Z,-0.61
2018-02-07T04:05:35.212Z,-0.54
2018-02-07T04:08:02.665Z,-0.47
2018-02-07T04:10:30.124Z,-0.64
2018-02-07T04:12:58.208Z,-0.55
2018-02-07T04:15:25.684Z,-0.53
2018-02-07T04:17:53.154Z,-0.68
2018-02-07T04:20:20.888Z,-0.66
2018-02-07T04:22:48.350Z,-0.63
2018-02-07T04:25:15.813Z,-0.70
2018-02-07T04:27:43.573Z,-0.69
2018-02-07T04:30:11.044Z,-0.60
2018-02-07T04:32:38.506Z,-0.04
2018-02-07T04:35:06.264Z,0.22
2018-02-07T04:37:34.039Z,0.71
2018-02-07T04:40:01.877Z,0.03
2018-02-07T04:42:30.188Z,-0.32
2018-02-07T04:44:57.653Z,-0.56
2018-02-07T04:47:25.109Z,-0.65
2018-02-07T04:49:52.860Z,-0.59
2018-02-07T04:52:20.317Z,-0.63
2018-02-07T04:54:47.781Z,-0.60
2018-02-07T04:57:15.562Z,-0.68
2018-02-07T04:59:43.029Z,-0.55
2018-02-07T05:02:10.488Z,-0.66
2018-02-07T05:04:38.129Z,-0.65
2018-02-07T05:07:05.587Z,-0.46
2018-02-07T05:09:33.060Z,-0.41
2018-02-07T05:12:00.940Z,-0.38
2018-02-07T05:14:28.396Z,-0.45
2018-02-07T05:16:55.877Z,-0.40
2018-02-07T05:19:23.623Z,-0.25
2018-02-07T05:21:51.091Z,-0.34
2018-02-07T05:24:18.560Z,-0.36
2018-02-07T05:26:46.306Z,-0.56
2018-02-07T05:29:13.766Z,-0.51
2018-02-07T05:31:41.225Z,-0.66
2018-02-07T05:34:08.992Z,-0.53
2018-02-07T05:36:36.452Z,-0.55
2018-02-07T05:39:03.917Z,-0.43
2018-02-07T05:41:33.216Z,-0.36
2018-02-07T05:44:00.668Z,-0.36
2018-02-07T05:46:28.138Z,-0.44
2018-02-07T05:48:55.925Z,-0.54
2018-02-07T05:51:23.384Z,-0.41
2018-02-07T05:53:50.849Z,-0.49
2018-02-07T05:56:18.584Z,-0.50
2018-02-07T05:58:46.044Z,-0.40
2018-02-07T06:01:13.508Z,-0.33
2018-02-07T06:03:41.268Z,-0.24
2018-02-07T06:06:08.772Z,-0.16
2018-02-07T06:08:36.220Z,-0.23
2018-02-07T06:11:03.965Z,-0.27
2018-02-07T06:13:31.424Z,-0.19
2018-02-07T06:15:58.885Z,-0.19
2018-02-07T06:18:26.955Z,-0.23
2018-02-07T06:20:54.411Z,-0.34
2018-02-07T06:23:21.885Z,-0.42
2018-02-07T06:25:49.960Z,-0.25
2018-02-07T06:28:17.429Z,-0.18
2018-02-07T06:30:44.888Z,-0.25
2018-02-07T06:33:12.661Z,-0.33
2018-02-07T06:35:40.125Z,-0.43
2018-02-07T06:38:07.595Z,-0.43
2018-02-07T06:40:35.615Z,-0.26
2018-02-07T06:43:03.175Z,-0.22
2018-02-07T06:45:30.642Z,-0.11
2018-02-07T06:47:58.856Z,-0.01
2018-02-07T06:50:26.316Z,-0.22
2018-02-07T06:52:53.786Z,-0.03
2018-02-07T06:55:21.633Z,0.16
2018-02-07T06:57:49.091Z,0.30
2018-02-07T07:00:16.558Z,0.27
2018-02-07T07:02:44.308Z,0.40
2018-02-07T07:05:11.773Z,0.64
2018-02-07T07:07:39.236Z,0.62
2018-02-07T07:10:06.989Z,0.48
2018-02-07T07:12:34.452Z,0.48
2018-02-07T07:15:01.910Z,0.60
2018-02-07T07:17:29.994Z,0.57
2018-02-07T07:19:57.465Z,0.77
2018-02-07T07:22:24.925Z,0.43
2018-02-07T07:24:52.678Z,0.53
2018-02-07T07:27:20.144Z,0.69
2018-02-07T07:29:47.605Z,0.69
2018-02-07T07:32:15.357Z,0.69
2018-02-07T07:34:42.810Z,0.68
2018-02-07T07:37:10.264Z,0.74
2018-02-07T07:39:38.025Z,0.79
2018-02-07T07:42:05.477Z,0.69
2018-02-07T07:44:33.040Z,0.92
2018-02-07T07:47:00.972Z,0.90
2018-02-07T07:49:28.419Z,1.06
2018-02-07T07:51:55.864Z,0.94
2018-02-07T07:54:24.033Z,1.10
2018-02-07T07:56:51.477Z,1.17
2018-02-07T07:59:18.933Z,1.07
2018-02-07T08:01:46.693Z,1.33
2018-02-07T08:04:14.140Z,1.27
2018-02-07T08:06:41.589Z,1.30
2018-02-07T08:09:09.296Z,1.35
2018-02-07T08:11:36.749Z,1.52
2018-02-07T08:14:04.204Z,1.59
2018-02-07T08:16:32.093Z,1.95
2018-02-07T08:18:59.542Z,1.83
2018-02-07T08:21:26.987Z,1.67
2018-02-07T08:23:54.789Z,1.77
2018-02-07T08:26:22.260Z,2.03
2018-02-07T08:28:49.733Z,1.97
2018-02-07T08:31:17.455Z,1.95
2018-02-07T08:33:44.903Z,1.92
2018-02-07T08:36:12.357Z,1.99
2018-02-07T08:38:40.463Z,2.09
2018-02-07T08:41:07.918Z,2.16
2018-02-07T08:43:35.366Z,2.19
2018-02-07T08:46:03.461Z,2.36
2018-02-07T08:48:30.905Z,2.51
2018-02-07T08:50:58.365Z,2.31
2018-02-07T08:53:26.194Z,2.40
2018-02-07T08:55:53.654Z,2.49
2018-02-07T08:58:21.123Z,2.76
2018-02-07T09:00:49.134Z,2.53
2018-02-07T09:03:16.639Z,2.85
2018-02-07T09:05:44.077Z,2.82
2018-02-07T09:08:11.795Z,2.73
2018-02-07T09:10:39.245Z,2.46
2018-02-07T09:13:06.705Z,2.92
2018-02-07T09:15:34.509Z,2.90
2018-02-07T09:18:01.961Z,3.24
2018-02-07T09:20:29.410Z,3.08
2018-02-07T09:22:57.203Z,3.17
2018-02-07T09:25:24.659Z,3.11
2018-02-07T09:27:52.108Z,3.10
2018-02-07T09:30:20.137Z,3.05
2018-02-07T09:32:47.598Z,3.16
2018-02-07T09:35:15.058Z,2.98
2018-02-07T09:37:43.195Z,2.81
2018-02-07T09:40:10.645Z,2.76
2018-02-07T09:42:38.099Z,3.13
2018-02-07T09:45:05.846Z,2.99
2018-02-07T09:47:33.721Z,2.57
2018-02-07T09:50:01.173Z,2.80
2018-02-07T09:52:29.161Z,2.28
2018-02-07T09:54:56.617Z,2.44
2018-02-07T09:57:24.078Z,2.13
2018-02-07T09:59:51.864Z,2.23
2018-02-07T10:02:19.324Z,2.29
2018-02-07T10:04:46.793Z,2.69
2018-02-07T10:07:14.859Z,3.06
2018-02-07T10:09:42.328Z,2.74
2018-02-07T10:12:09.781Z,3.09
2018-02-07T10:14:37.452Z,3.25
2018-02-07T10:17:04.905Z,3.06
2018-02-07T10:19:32.347Z,3.31
2018-02-07T10:22:00.168Z,3.17
2018-02-07T10:24:27.619Z,3.18
2018-02-07T10:26:55.068Z,3.21
2018-02-07T10:29:22.914Z,2.99
2018-02-07T10:31:50.364Z,2.66
2018-02-07T10:34:17.823Z,2.83
2018-02-07T10:36:45.616Z,2.79
2018-02-07T10:39:13.072Z,2.76
2018-02-07T10:41:40.534Z,2.98
2018-02-07T10:44:08.365Z,2.79
2018-02-07T10:46:35.816Z,2.90
2018-02-07T10:49:05.436Z,2.47
2018-02-07T10:51:33.133Z,2.64
2018-02-07T10:54:00.592Z,2.59
2018-02-07T10:56:28.042Z,2.62
2018-02-07T10:58:55.817Z,2.79
2018-02-07T11:01:23.267Z,2.75
2018-02-07T11:03:50.819Z,2.63
2018-02-07T11:06:18.523Z,2.65
2018-02-07T11:08:45.977Z,2.77
2018-02-07T11:11:13.437Z,2.49
2018-02-07T11:13:41.202Z,2.54
2018-02-07T11:16:08.656Z,2.61
2018-02-07T11:18:36.120Z,2.46
2018-02-07T11:21:03.885Z,2.54
2018-02-07T11:23:31.391Z,2.58
2018-02-07T11:25:58.855Z,2.31
2018-02-07T11:28:26.568Z,2.20
2018-02-07T11:30:54.017Z,2.14
2018-02-07T11:33:21.477Z,2.44
2018-02-07T11:35:49.262Z,2.13
2018-02-07T11:38:16.718Z,2.22
2018-02-07T11:40:44.179Z,2.01
2018-02-07T11:43:11.945Z,2.08
2018-02-07T11:45:39.411Z,2.17
2018-02-07T11:48:06.876Z,2.29
2018-02-07T11:50:35.251Z,2.43
2018-02-07T11:53:02.714Z,2.32
2018-02-07T11:55:30.169Z,2.03
2018-02-07T11:57:59.458Z,1.99
2018-02-07T12:00:26.958Z,1.96
2018-02-07T12:02:54.416Z,1.96
2018-02-07T12:05:22.164Z,1.93
2018-02-07T12:07:49.693Z,1.79
2018-02-07T12:10:17.152Z,1.87
2018-02-07T12:12:44.857Z,1.84
2018-02-07T12:15:12.313Z,1.92
2018-02-07T12:17:39.776Z,1.98
2018-02-07T12:20:07.520Z,1.94
2018-02-07T12:22:34.973Z,2.10
2018-02-07T12:25:02.433Z,2.10
2018-02-07T12:27:30.219Z,1.99
2018-02-07T12:29:57.674Z,2.14
2018-02-07T12:32:25.130Z,2.10
2018-02-07T12:34:52.917Z,2.09
2018-02-07T12:37:20.366Z,1.98
2018-02-07T12:39:47.820Z,1.97
2018-02-07T12:42:15.601Z,1.91
2018-02-07T12:44:43.056Z,1.86
2018-02-07T12:47:10.513Z,2.06
2018-02-07T12:49:38.281Z,2.06
2018-02-07T12:52:05.819Z,2.10
2018-02-07T12:54:33.277Z,2.06
2018-02-07T12:57:00.973Z,2.22
2018-02-07T12:59:28.516Z,2.13
2018-02-07T13:01:55.970Z,2.25
2018-02-07T13:04:23.954Z,2.28
2018-02-07T13:06:51.474Z,2.25
2018-02-07T13:09:20.935Z,2.31
2018-02-07T13:11:49.100Z,2.21
2018-02-07T13:14:16.556Z,2.15
2018-02-07T13:16:44.019Z,2.18
2018-02-07T13:19:11.775Z,2.01
2018-02-07T13:21:39.236Z,1.92
2018-02-07T13:24:06.704Z,1.95
2018-02-07T13:26:34.481Z,2.00
2018-02-07T13:29:01.966Z,1.96
2018-02-07T13:31:29.434Z,2.03
2018-02-07T13:33:57.169Z,1.78
2018-02-07T13:36:24.636Z,1.74
2018-02-07T13:38:52.100Z,1.72
2018-02-07T13:41:19.857Z,1.82
2018-02-07T13:43:47.318Z,1.74
2018-02-07T13:46:14.786Z,1.65
2018-02-07T13:48:42.537Z,1.71
2018-02-07T13:51:10.002Z,1.67
2018-02-07T13:53:37.859Z,1.65
2018-02-07T13:56:05.838Z,1.72
2018-02-07T13:58:33.289Z,1.81
2018-02-07T14:01:00.748Z,1.69
2018-02-07T14:03:28.532Z,1.73
2018-02-07T14:05:55.993Z,1.71
2018-02-07T14:08:23.456Z,1.75
2018-02-07T14:10:51.227Z,1.85
2018-02-07T14:13:18.730Z,1.92
2018-02-07T14:15:46.181Z,1.87
2018-02-07T14:18:13.909Z,1.80
2018-02-07T14:20:41.376Z,2.07
2018-02-07T14:23:08.844Z,2.22
2018-02-07T14:25:36.596Z,2.37
2018-02-07T14:28:04.052Z,2.14
2018-02-07T14:30:31.513Z,2.13
2018-02-07T14:32:59.276Z,2.18
2018-02-07T14:35:26.738Z,2.10
2018-02-07T14:37:54.198Z,2.24
2018-02-07T14:40:22.281Z,2.45
2018-02-07T14:42:49.751Z,2.43
2018-02-07T14:45:17.213Z,2.25
2018-02-07T14:47:44.988Z,2.12
2018-02-07T14:50:12.444Z,2.04
2018-02-07T14:52:39.906Z,2.04
2018-02-07T14:55:08.881Z,1.94
2018-02-07T14:57:36.413Z,1.97
2018-02-07T15:00:03.883Z,2.06
2018-02-07T15:02:31.572Z,2.16
2018-02-07T15:04:59.025Z,2.11
2018-02-07T15:07:26.488Z,2.13
2018-02-07T15:09:54.246Z,2.22
2018-02-07T15:12:21.704Z,2.01
2018-02-07T15:14:49.161Z,2.03
2018-02-07T15:17:16.930Z,1.83
2018-02-07T15:19:44.389Z,1.89
2018-02-07T15:22:11.845Z,1.83
2018-02-07T15:24:39.625Z,1.94
2018-02-07T15:27:07.090Z,1.92
2018-02-07T15:29:34.879Z,1.79
2018-02-07T15:32:02.609Z,1.85
2018-02-07T15:34:30.065Z,1.68
2018-02-07T15:36:57.520Z,1.69
2018-02-07T15:39:25.314Z,1.68
2018-02-07T15:41:52.771Z,1.66
2018-02-07T15:44:20.233Z,1.49
2018-02-07T15:46:48.002Z,1.57
2018-02-07T15:49:15.455Z,1.52
2018-02-07T15:51:42.905Z,1.56
2018-02-07T15:54:10.668Z,1.53
2018-02-07T15:56:40.352Z,1.60
2018-02-07T15:59:08.566Z,1.46
2018-02-07T16:01:36.440Z,1.53
2018-02-07T16:04:03.896Z,1.47
2018-02-07T16:06:31.352Z,1.48
2018-02-07T16:08:59.116Z,1.45
2018-02-07T16:11:26.618Z,1.35
2018-02-07T16:13:54.057Z,1.40
2018-02-07T16:16:21.801Z,1.34
2018-02-07T16:18:49.256Z,1.35
2018-02-07T16:21:16.721Z,1.38
2018-02-07T16:23:44.446Z,1.35
2018-02-07T16:26:11.906Z,1.40
2018-02-07T16:28:39.365Z,1.47
2018-02-07T16:31:07.200Z,1.38
2018-02-07T16:33:34.656Z,1.50
2018-02-07T16:36:02.119Z,1.48
2018-02-07T16:38:30.177Z,1.62
2018-02-07T16:40:57.636Z,1.55
2018-02-07T16:43:25.095Z,1.57
2018-02-07T16:45:52.866Z,1.43
2018-02-07T16:48:20.316Z,1.23
2018-02-07T16:50:47.773Z,1.45
2018-02-07T16:53:15.506Z,1.48
2018-02-07T16:55:42.958Z,1.36
2018-02-07T16:58:11.188Z,1.39
2018-02-07T17:00:39.185Z,1.44
2018-02-07T17:03:06.736Z,1.33
2018-02-07T17:05:34.972Z,1.53
2018-02-07T17:08:02.933Z,1.35
2018-02-07T17:10:30.600Z,1.39
2018-02-07T17:12:58.376Z,1.26
2018-02-07T17:15:26.389Z,1.28
2018-02-07T17:17:54.366Z,1.37
2018-02-07T17:20:23.100Z,1.38
2018-02-07T17:22:50.914Z,1.35
2018-02-07T17:25:18.436Z,1.34
2018-02-07T17:27:45.896Z,1.36
2018-02-07T17:30:14.509Z,1.40
2018-02-07T17:32:42.048Z,1.50
2018-02-07T17:35:09.752Z,1.44
2018-02-07T17:37:37.545Z,1.49
2018-02-07T17:40:05.449Z,1.53
2018-02-07T17:42:33.908Z,1.55
2018-02-07T17:45:01.480Z,1.50
2018-02-07T17:47:28.937Z,1.47
2018-02-07T17:49:56.428Z,1.38
2018-02-07T17:52:25.362Z,1.44
2018-02-07T17:54:53.036Z,1.56
2018-02-07T17:57:20.551Z,1.57
2018-02-07T17:59:48.977Z,1.50
2018-02-07T18:02:16.936Z,1.44
2018-02-07T18:04:45.372Z,1.40
2018-02-07T18:07:13.186Z,1.49
2018-02-07T18:09:40.709Z,1.44
2018-02-07T18:12:08.154Z,1.48
2018-02-07T18:14:36.525Z,1.51
2018-02-07T18:17:04.002Z,1.68
2018-02-07T18:19:31.461Z,1.62
2018-02-07T18:21:59.525Z,1.67
2018-02-07T18:24:27.909Z,1.54
2018-02-07T18:26:56.283Z,1.43
2018-02-07T18:29:23.995Z,1.37
2018-02-07T18:31:51.496Z,1.41
2018-02-07T18:34:19.272Z,1.36
2018-02-07T18:36:47.678Z,1.31
2018-02-07T18:39:15.128Z,1.38
2018-02-07T18:41:43.836Z,1.42
2018-02-07T18:44:11.832Z,1.33
2018-02-07T18:46:39.281Z,1.42
2018-02-07T18:49:06.738Z,1.36
2018-02-07T18:51:34.525Z,1.37
2018-02-07T18:54:01.997Z,1.32
2018-02-07T18:56:29.473Z,1.42
2018-02-07T18:58:57.204Z,1.36
2018-02-07T19:01:25.363Z,1.39
2018-02-07T19:03:52.839Z,1.34
2018-02-07T19:06:20.830Z,1.35
2018-02-07T19:08:48.287Z,1.35
2018-02-07T19:11:15.745Z,1.36
2018-02-07T19:13:43.498Z,1.31
2018-02-07T19:16:10.958Z,1.35
2018-02-07T19:18:38.491Z,1.38
2018-02-07T19:21:06.504Z,1.44
2018-02-07T19:23:33.968Z,1.24
2018-02-07T19:26:01.433Z,1.36
2018-02-07T19:28:29.189Z,1.42
2018-02-07T19:30:56.666Z,1.33
2018-02-07T19:33:24.406Z,1.35
2018-02-07T19:35:52.141Z,1.39
2018-02-07T19:38:19.618Z,1.48
2018-02-07T19:40:47.103Z,1.47
2018-02-07T19:43:14.882Z,1.47
2018-02-07T19:45:42.365Z,1.39
2018-02-07T19:48:09.820Z,1.40
2018-02-07T19:50:37.854Z,1.33
2018-02-07T19:53:05.316Z,1.42
2018-02-07T19:55:32.788Z,1.46
2018-02-07T19:58:00.568Z,1.43
2018-02-07T20:00:28.018Z,1.38
2018-02-07T20:02:57.943Z,1.35
2018-02-07T20:05:26.912Z,1.42
2018-02-07T20:07:54.431Z,1.49
2018-02-07T20:10:21.899Z,1.39
2018-02-07T20:12:50.029Z,1.38
2018-02-07T20:15:18.304Z,1.37
2018-02-07T20:17:46.919Z,1.36
2018-02-07T20:20:14.752Z,1.33
2018-02-07T20:22:42.207Z,1.40
2018-02-07T20:25:09.705Z,1.42
2018-02-07T20:27:37.752Z,1.43
2018-02-07T20:30:05.256Z,1.30
2018-02-07T20:32:32.731Z,1.35
2018-02-07T20:35:01.357Z,1.36
2018-02-07T20:37:29.446Z,1.43
2018-02-07T20:39:57.060Z,1.36
2018-02-07T20:42:26.246Z,1.43
2018-02-07T20:44:53.973Z,1.44
2018-02-07T20:47:21.484Z,1.39
2018-02-07T20:49:49.500Z,1.36
2018-02-07T20:52:16.996Z,1.43
2018-02-07T20:54:45.636Z,1.38
2018-02-07T20:57:13.412Z,1.41
2018-02-07T20:59:40.858Z,1.47
2018-02-07T21:02:08.315Z,1.35
2018-02-07T21:04:37.408Z,1.34
2018-02-07T21:07:05.973Z,1.30
2018-02-07T21:09:33.834Z,1.34
2018-02-07T21:12:02.182Z,1.30
2018-02-07T21:14:29.640Z,1.39
2018-02-07T21:16:57.102Z,1.27
2018-02-07T21:19:25.253Z,1.28
2018-02-07T21:21:52.701Z,1.17
2018-02-07T21:24:20.499Z,1.18
2018-02-07T21:26:50.252Z,1.21
2018-02-07T21:29:18.329Z,1.27
2018-02-07T21:31:45.774Z,1.26
2018-02-07T21:34:13.661Z,1.21
2018-02-07T21:36:41.124Z,1.26
2018-02-07T21:39:08.589Z,1.26
2018-02-07T21:41:36.600Z,1.16
2018-02-07T21:44:04.088Z,1.17
2018-02-07T21:46:31.549Z,1.19
2018-02-07T21:48:59.298Z,1.23
2018-02-07T21:51:26.757Z,1.21
2018-02-07T21:53:54.211Z,1.23
2018-02-07T21:56:22.301Z,1.40
2018-02-07T21:58:49.760Z,1.37
2018-02-07T22:01:17.212Z,1.37
2018-02-07T22:03:44.981Z,1.29
2018-02-07T22:06:13.120Z,1.43
2018-02-07T22:08:40.589Z,1.31
2018-02-07T22:11:08.306Z,1.33
2018-02-07T22:13:35.760Z,1.27
2018-02-07T22:16:03.216Z,1.29
2018-02-07T22:18:30.806Z,1.31
2018-02-07T22:20:58.266Z,1.27
2018-02-07T22:23:25.720Z,1.33
2018-02-07T22:25:53.648Z,1.27
2018-02-07T22:28:21.110Z,1.21
2018-02-07T22:30:48.573Z,1.22
2018-02-07T22:33:16.639Z,1.20
2018-02-07T22:35:44.092Z,1.11
2018-02-07T22:38:11.562Z,1.13
2018-02-07T22:40:39.383Z,1.24
2018-02-07T22:43:06.814Z,1.11
2018-02-07T22:45:34.269Z,1.11
2018-02-07T22:48:02.021Z,1.14
2018-02-07T22:50:29.557Z,1.07
2018-02-07T22:52:57.017Z,1.09
2018-02-07T22:55:25.052Z,1.08
2018-02-07T22:57:52.505Z,1.03
2018-02-07T23:00:19.956Z,0.94
2018-02-07T23:02:48.012Z,0.98
2018-02-07T23:05:15.489Z,1.04
2018-02-07T23:07:43.618Z,1.03
2018-02-07T23:10:11.611Z,1.01
2018-02-07T23:12:39.077Z,1.04
2018-02-07T23:15:06.528Z,1.03
2018-02-07T23:17:34.296Z,1.03
2018-02-07T23:20:01.764Z,1.09
2018-02-07T23:22:29.233Z,1.08
2018-02-07T23:24:56.984Z,1.10
2018-02-07T23:27:24.449Z,1.13
2018-02-07T23:29:51.925Z,1.20
2018-02-07T23:32:19.676Z,1.07
2018-02-07T23:34:47.149Z,1.09
2018-02-07T23:37:14.619Z,1.03
2018-02-07T23:39:42.363Z,0.99
2018-02-07T23:42:09.824Z,1.05
2018-02-07T23:44:37.291Z,1.03
2018-02-07T23:47:05.028Z,1.04
2018-02-07T23:49:32.485Z,1.15
2018-02-07T23:51:59.945Z,1.08
2018-02-07T23:54:28.056Z,1.02
2018-02-07T23:56:55.512Z,1.07
2018-02-07T23:59:22.976Z,1.13
